UKLU

Uzhhorod International Airport

Uzhhorod, Ukraine
TAF UKLU 200805Z 2009/2018 30003MPS 5000 -SN BR OVC020 TXM00/2013Z TNM03/2018Z TEMPO 2009/2015 33005MPS 2000 -SHSN BR BKN007 BKN015CB
Issued Valid From Valid To
Jan-20 @ 08:05 UTC
(4 hours ago)
Jan-20 @ 09:00 UTC
(3 hours ago)
Jan-20 @ 18:00 UTC
(in 6 hours)
Jan-20 @ 09:00 to Jan-20 @ 18:00
TAF UKLU 200805Z 2009/2018 30003MPS 5000 -SN BR OVC020 TXM00/2013Z TNM03/2018Z
Wind Visibility Clouds Conditions
300° at 6 knots 5,005 meters
  • Overcast at 2,000' AGL
  • Light Snow
  • Mist
Temporary Jan-20 @ 09:00 to Jan-20 @ 15:00
TEMPO 2009/2015 33005MPS 2000 -SHSN BR BKN007 BKN015CB
Wind Visibility Clouds Conditions
330° at 10 knots 1,996 meters
  • Broken at 700' AGL
  • Broken at 1,500' AGL
  • Light Snow
  • Mist
TAF UKLU 200805Z 2009/2018 30003MPS 5000 -SN BR OVC020 TXM00/2013Z TNM03/2018Z TEMPO 2009/2015 33005MPS 2000 -SHSN BR BKN007 BKN015CB
Issued Jan-20 @ 08:05 UTC
(4 hours ago)
Valid From Jan-20 @ 09:00 UTC
(3 hours ago)
Valid To Jan-20 @ 18:00 UTC
(in 6 hours)
Jan-20 @ 09:00 - Jan-20 @ 18:00
Wind Visibility
300° at 6 knots 5,005 meters
Clouds
  • Overcast at 2,000' AGL
Conditions
  • Light Snow
  • Mist
Temporary Jan-20 @ 09:00 - Jan-20 @ 15:00
Wind Visibility
330° at 10 knots 1,996 meters
Clouds
  • Broken at 700' AGL
  • Broken at 1,500' AGL
Conditions
  • Light Snow
  • Mist